MSC Bremen — A8LK7 — position and weather

sailwx.info

Track history (hours):
 
Tides and Currents Weather Stations Pressure Air Temp Water Temp Dewpoint Dewpoint Depression Visibility Wind Speed Wind Dir Waves Ship Positions

MSC Bremen

Last reported at 2015-Feb-25 15:33 UTC. Time now 2015-Mar-03 16:40 UTC.
Position S 13°06' W 038°24'.

Length 294 m; ; draft 13.7 m.

Type: Ship (hazmat cat A). MMSI: 636091270.

Date/timePositionNaut miles runAvg speedWind from/ knotsBaromVisibWave heightAir tempDewpointWater temp
2015-Feb-25 15:33S 13°06' W 038°24'1111.5
2015-Feb-25 14:33S 12°58' W 038°33'2 2.3
2015-Feb-25 13:32S 12°57' W 038°31'0 0.0
2015-Feb-25 12:32S 12°58' W 038°31'0 0.0
2015-Feb-25 11:32S 12°58' W 038°31'0 0.0
2015-Feb-25 10:32S 12°58' W 038°31'0 0.0
2015-Feb-25 09:32S 12°58' W 038°31'0 0.0
2015-Feb-25 08:32S 12°58' W 038°31'0 0.1
2015-Feb-25 07:33S 12°57' W 038°31'3 3.0
2015-Feb-25 06:33S 12°57' W 038°34'1 0.7
2015-Feb-25 05:32S 12°58' W 038°34'0 0.0
2015-Feb-25 04:32S 12°58' W 038°34'0 0.1
2015-Feb-25 03:32S 12°58' W 038°34'0 0.0
2015-Feb-25 02:32S 12°58' W 038°34'0 0.0
2015-Feb-25 01:32S 12°58' W 038°34'0 0.1
2015-Feb-25 00:32S 12°58' W 038°34'0 0.2
2015-Feb-24 23:32S 12°58' W 038°34'0 0.0
2015-Feb-24 22:32S 12°58' W 038°34'0 0.0
2015-Feb-24 21:32S 12°58' W 038°34'0 0.0
2015-Feb-24 20:32S 12°58' W 038°34'0 0.0
2015-Feb-24 19:32S 12°58' W 038°34'0 0.1
2015-Feb-24 18:32S 12°58' W 038°34'0 0.0
2015-Feb-24 17:32S 12°58' W 038°34'0 0.2
2015-Feb-24 16:32S 12°58' W 038°34'0 0.1
2015-Feb-24 15:32S 12°58' W 038°34'0 0.0
2015-Feb-24 14:32S 12°58' W 038°34'0 0.0
2015-Feb-24 13:32S 12°58' W 038°34'1 0.7
2015-Feb-24 12:34S 12°59' W 038°34'9 8.7
2015-Feb-24 11:33S 13°07' W 038°35'1312.7
2015-Feb-24 10:33S 13°20' W 038°34'  
2015-Feb-21 22:10S 24°08' W 046°22'813.1
2015-Feb-21 21:31S 23°60' W 046°20'5 4.8
2015-Feb-21 20:31S 23°55' W 046°21'0 0.0
2015-Feb-21 13:08S 23°55' W 046°21'0 0.0
2015-Feb-21 04:11S 23°55' W 046°21'0 0.0
2015-Feb-21 02:23S 23°55' W 046°21'5 5.7
2015-Feb-21 01:32S 23°59' W 046°17'8 8.3
2015-Feb-21 00:32S 24°06' W 046°22'1110.5
2015-Feb-20 23:31S 24°16' W 046°27'18516.5
2015-Feb-20 12:21S 26°49' W 048°20'13 0.3
2015-Feb-18 13:23S 27°02' W 048°22'2513.4
2015-Feb-18 11:33S 27°24' W 048°10'1515.0
2015-Feb-18 10:33S 27°39' W 048°10'1514.9
2015-Feb-18 09:33S 27°54' W 048°10'  
Track history (hours):
 
Tides and Currents Weather Stations Pressure Air Temp Water Temp Dewpoint Dewpoint Depression Visibility Wind Speed Wind Dir Waves Ship Positions

MSC Bremen

Last reported at 2015-Feb-25 15:33 UTC. Time now 2015-Mar-03 16:40 UTC.
Position S 13°06' W 038°24'.

Length 294 m; ; draft 13.7 m.

Type: Ship (hazmat cat A). MMSI: 636091270.

Date/timePositionNaut miles runAvg speedWind from/ knotsBaromVisibWave heightAir tempDewpointWater temp
2015-Feb-25 15:33S 13°06' W 038°24'1111.5
2015-Feb-25 14:33S 12°58' W 038°33'2 2.3
2015-Feb-25 13:32S 12°57' W 038°31'0 0.0
2015-Feb-25 12:32S 12°58' W 038°31'0 0.0
2015-Feb-25 11:32S 12°58' W 038°31'0 0.0
2015-Feb-25 10:32S 12°58' W 038°31'0 0.0
2015-Feb-25 09:32S 12°58' W 038°31'0 0.0
2015-Feb-25 08:32S 12°58' W 038°31'0 0.1
2015-Feb-25 07:33S 12°57' W 038°31'3 3.0
2015-Feb-25 06:33S 12°57' W 038°34'1 0.7
2015-Feb-25 05:32S 12°58' W 038°34'0 0.0
2015-Feb-25 04:32S 12°58' W 038°34'0 0.1
2015-Feb-25 03:32S 12°58' W 038°34'0 0.0
2015-Feb-25 02:32S 12°58' W 038°34'0 0.0
2015-Feb-25 01:32S 12°58' W 038°34'0 0.1
2015-Feb-25 00:32S 12°58' W 038°34'0 0.2
2015-Feb-24 23:32S 12°58' W 038°34'0 0.0
2015-Feb-24 22:32S 12°58' W 038°34'0 0.0
2015-Feb-24 21:32S 12°58' W 038°34'0 0.0
2015-Feb-24 20:32S 12°58' W 038°34'0 0.0
2015-Feb-24 19:32S 12°58' W 038°34'0 0.1
2015-Feb-24 18:32S 12°58' W 038°34'0 0.0
2015-Feb-24 17:32S 12°58' W 038°34'0 0.2
2015-Feb-24 16:32S 12°58' W 038°34'0 0.1
2015-Feb-24 15:32S 12°58' W 038°34'0 0.0
2015-Feb-24 14:32S 12°58' W 038°34'0 0.0
2015-Feb-24 13:32S 12°58' W 038°34'1 0.7
2015-Feb-24 12:34S 12°59' W 038°34'9 8.7
2015-Feb-24 11:33S 13°07' W 038°35'1312.7
2015-Feb-24 10:33S 13°20' W 038°34'  
2015-Feb-21 22:10S 24°08' W 046°22'813.1
2015-Feb-21 21:31S 23°60' W 046°20'5 4.8
2015-Feb-21 20:31S 23°55' W 046°21'0 0.0
2015-Feb-21 13:08S 23°55' W 046°21'0 0.0
2015-Feb-21 04:11S 23°55' W 046°21'0 0.0
2015-Feb-21 02:23S 23°55' W 046°21'5 5.7
2015-Feb-21 01:32S 23°59' W 046°17'8 8.3
2015-Feb-21 00:32S 24°06' W 046°22'1110.5
2015-Feb-20 23:31S 24°16' W 046°27'18516.5
2015-Feb-20 12:21S 26°49' W 048°20'13 0.3
2015-Feb-18 13:23S 27°02' W 048°22'2513.4
2015-Feb-18 11:33S 27°24' W 048°10'1515.0
2015-Feb-18 10:33S 27°39' W 048°10'1514.9
2015-Feb-18 09:33S 27°54' W 048°10'  

Dump ship's entire track history